sensor_id;sensor_type;location;lat;lon;timestamp;P1;durP1;ratioP1;P2;durP2;ratioP2
28343;SDS011;15597;50.914;6.638;2023-10-13T00:02:07;7.10;;;3.10;;
28343;SDS011;15597;50.914;6.638;2023-10-13T00:04:33;7.28;;;2.67;;
28343;SDS011;15597;50.914;6.638;2023-10-13T00:07:02;7.13;;;2.53;;
28343;SDS011;15597;50.914;6.638;2023-10-13T00:09:29;5.55;;;2.42;;
28343;SDS011;15597;50.914;6.638;2023-10-13T00:11:59;7.28;;;2.90;;
28343;SDS011;15597;50.914;6.638;2023-10-13T00:14:25;9.80;;;3.30;;
28343;SDS011;15597;50.914;6.638;2023-10-13T00:17:00;7.28;;;2.90;;
28343;SDS011;15597;50.914;6.638;2023-10-13T00:19:30;8.45;;;3.10;;
28343;SDS011;15597;50.914;6.638;2023-10-13T00:22:18;7.53;;;3.00;;
28343;SDS011;15597;50.914;6.638;2023-10-13T00:24:44;7.07;;;2.90;;
28343;SDS011;15597;50.914;6.638;2023-10-13T00:27:11;7.07;;;2.80;;
28343;SDS011;15597;50.914;6.638;2023-10-13T00:29:56;6.43;;;2.53;;
28343;SDS011;15597;50.914;6.638;2023-10-13T00:32:57;6.10;;;3.00;;
28343;SDS011;15597;50.914;6.638;2023-10-13T00:35:23;6.18;;;2.88;;
28343;SDS011;15597;50.914;6.638;2023-10-13T00:38:10;7.70;;;3.10;;
28343;SDS011;15597;50.914;6.638;2023-10-13T00:40:39;6.43;;;2.90;;
28343;SDS011;15597;50.914;6.638;2023-10-13T00:43:05;7.88;;;2.90;;
28343;SDS011;15597;50.914;6.638;2023-10-13T00:45:52;6.97;;;2.80;;
28343;SDS011;15597;50.914;6.638;2023-10-13T00:48:32;7.10;;;2.92;;
28343;SDS011;15597;50.914;6.638;2023-10-13T00:51:08;5.40;;;2.67;;
28343;SDS011;15597;50.914;6.638;2023-10-13T00:53:44;6.55;;;2.55;;
28343;SDS011;15597;50.914;6.638;2023-10-13T00:56:12;8.75;;;2.92;;
28343;SDS011;15597;50.914;6.638;2023-10-13T00:58:45;7.30;;;2.80;;
28343;SDS011;15597;50.914;6.638;2023-10-13T01:01:18;5.05;;;2.88;;
28343;SDS011;15597;50.914;6.638;2023-10-13T01:03:53;6.72;;;2.80;;
28343;SDS011;15597;50.914;6.638;2023-10-13T01:06:21;4.78;;;2.10;;
28343;SDS011;15597;50.914;6.638;2023-10-13T01:08:56;6.50;;;3.15;;
28343;SDS011;15597;50.914;6.638;2023-10-13T01:11:40;7.15;;;3.30;;
28343;SDS011;15597;50.914;6.638;2023-10-13T01:14:10;7.43;;;2.75;;
28343;SDS011;15597;50.914;6.638;2023-10-13T01:16:37;6.90;;;3.05;;
28343;SDS011;15597;50.914;6.638;2023-10-13T01:19:09;5.47;;;2.90;;
28343;SDS011;15597;50.914;6.638;2023-10-13T01:21:38;4.30;;;2.28;;
28343;SDS011;15597;50.914;6.638;2023-10-13T01:24:06;5.50;;;2.85;;
28343;SDS011;15597;50.914;6.638;2023-10-13T01:26:34;7.95;;;2.90;;
28343;SDS011;15597;50.914;6.638;2023-10-13T01:29:07;4.05;;;2.00;;
28343;SDS011;15597;50.914;6.638;2023-10-13T01:31:40;7.28;;;2.97;;
28343;SDS011;15597;50.914;6.638;2023-10-13T01:34:14;6.20;;;2.90;;
28343;SDS011;15597;50.914;6.638;2023-10-13T01:36:48;6.13;;;3.08;;
28343;SDS011;15597;50.914;6.638;2023-10-13T01:39:19;7.25;;;3.00;;
28343;SDS011;15597;50.914;6.638;2023-10-13T01:41:46;5.82;;;3.08;;
28343;SDS011;15597;50.914;6.638;2023-10-13T01:44:29;6.65;;;3.42;;
28343;SDS011;15597;50.914;6.638;2023-10-13T01:46:56;6.60;;;2.80;;
28343;SDS011;15597;50.914;6.638;2023-10-13T01:49:34;4.72;;;2.55;;
28343;SDS011;15597;50.914;6.638;2023-10-13T01:52:07;6.75;;;3.45;;
28343;SDS011;15597;50.914;6.638;2023-10-13T01:54:42;5.20;;;2.60;;
28343;SDS011;15597;50.914;6.638;2023-10-13T01:57:13;11.32;;;3.70;;
28343;SDS011;15597;50.914;6.638;2023-10-13T01:59:43;8.23;;;3.40;;
28343;SDS011;15597;50.914;6.638;2023-10-13T02:02:10;6.32;;;2.90;;
28343;SDS011;15597;50.914;6.638;2023-10-13T02:04:39;6.05;;;2.42;;
28343;SDS011;15597;50.914;6.638;2023-10-13T02:07:20;7.45;;;3.65;;
28343;SDS011;15597;50.914;6.638;2023-10-13T02:09:46;5.38;;;2.55;;
28343;SDS011;15597;50.914;6.638;2023-10-13T02:12:12;5.45;;;2.38;;
28343;SDS011;15597;50.914;6.638;2023-10-13T02:14:40;8.85;;;3.75;;
28343;SDS011;15597;50.914;6.638;2023-10-13T02:17:07;6.55;;;3.47;;
28343;SDS011;15597;50.914;6.638;2023-10-13T02:19:39;5.07;;;2.58;;
28343;SDS011;15597;50.914;6.638;2023-10-13T02:22:09;6.15;;;2.67;;
28343;SDS011;15597;50.914;6.638;2023-10-13T02:24:36;4.65;;;2.17;;
28343;SDS011;15597;50.914;6.638;2023-10-13T02:27:06;6.93;;;2.60;;
28343;SDS011;15597;50.914;6.638;2023-10-13T02:29:39;4.55;;;2.42;;
28343;SDS011;15597;50.914;6.638;2023-10-13T02:32:06;7.57;;;2.72;;
28343;SDS011;15597;50.914;6.638;2023-10-13T02:34:38;9.05;;;3.63;;
28343;SDS011;15597;50.914;6.638;2023-10-13T02:37:09;5.20;;;2.40;;
28343;SDS011;15597;50.914;6.638;2023-10-13T02:39:35;9.68;;;3.58;;
28343;SDS011;15597;50.914;6.638;2023-10-13T02:42:04;8.93;;;3.75;;
28343;SDS011;15597;50.914;6.638;2023-10-13T02:44:32;12.15;;;4.20;;
28343;SDS011;15597;50.914;6.638;2023-10-13T02:46:59;9.75;;;4.13;;
28343;SDS011;15597;50.914;6.638;2023-10-13T02:49:27;6.15;;;3.40;;
28343;SDS011;15597;50.914;6.638;2023-10-13T02:51:58;6.65;;;2.75;;
28343;SDS011;15597;50.914;6.638;2023-10-13T02:54:35;5.75;;;2.20;;
28343;SDS011;15597;50.914;6.638;2023-10-13T02:57:21;5.45;;;2.60;;
28343;SDS011;15597;50.914;6.638;2023-10-13T02:59:48;5.63;;;2.80;;
28343;SDS011;15597;50.914;6.638;2023-10-13T03:02:16;4.43;;;2.20;;
28343;SDS011;15597;50.914;6.638;2023-10-13T03:04:54;10.15;;;3.67;;
28343;SDS011;15597;50.914;6.638;2023-10-13T03:07:35;6.15;;;2.53;;
28343;SDS011;15597;50.914;6.638;2023-10-13T03:10:03;8.73;;;2.88;;
28343;SDS011;15597;50.914;6.638;2023-10-13T03:12:35;10.65;;;3.95;;
28343;SDS011;15597;50.914;6.638;2023-10-13T03:15:02;4.75;;;2.20;;
28343;SDS011;15597;50.914;6.638;2023-10-13T03:17:38;6.05;;;3.25;;
28343;SDS011;15597;50.914;6.638;2023-10-13T03:20:12;8.43;;;3.63;;
28343;SDS011;15597;50.914;6.638;2023-10-13T03:22:40;7.03;;;3.42;;
28343;SDS011;15597;50.914;6.638;2023-10-13T03:25:06;5.50;;;2.38;;
28343;SDS011;15597;50.914;6.638;2023-10-13T03:27:38;5.18;;;2.80;;
28343;SDS011;15597;50.914;6.638;2023-10-13T03:30:06;6.10;;;2.72;;
28343;SDS011;15597;50.914;6.638;2023-10-13T03:32:41;5.63;;;2.60;;
28343;SDS011;15597;50.914;6.638;2023-10-13T03:35:12;8.43;;;3.55;;
28343;SDS011;15597;50.914;6.638;2023-10-13T03:37:38;8.63;;;3.17;;
28343;SDS011;15597;50.914;6.638;2023-10-13T03:40:04;8.43;;;3.60;;
28343;SDS011;15597;50.914;6.638;2023-10-13T03:42:45;8.15;;;2.90;;
28343;SDS011;15597;50.914;6.638;2023-10-13T03:45:30;6.15;;;2.92;;
28343;SDS011;15597;50.914;6.638;2023-10-13T03:48:07;6.68;;;2.55;;
28343;SDS011;15597;50.914;6.638;2023-10-13T03:50:46;4.38;;;2.22;;
28343;SDS011;15597;50.914;6.638;2023-10-13T03:53:13;5.18;;;2.42;;
28343;SDS011;15597;50.914;6.638;2023-10-13T03:55:39;8.23;;;3.63;;
28343;SDS011;15597;50.914;6.638;2023-10-13T03:58:05;8.10;;;3.08;;
28343;SDS011;15597;50.914;6.638;2023-10-13T04:00:32;7.05;;;3.20;;
28343;SDS011;15597;50.914;6.638;2023-10-13T04:02:58;4.88;;;2.65;;
28343;SDS011;15597;50.914;6.638;2023-10-13T04:05:33;7.03;;;3.53;;
28343;SDS011;15597;50.914;6.638;2023-10-13T04:08:10;8.75;;;3.67;;
28343;SDS011;15597;50.914;6.638;2023-10-13T04:10:57;6.80;;;2.80;;
28343;SDS011;15597;50.914;6.638;2023-10-13T04:13:23;5.28;;;2.63;;
28343;SDS011;15597;50.914;6.638;2023-10-13T04:16:07;5.65;;;2.67;;
28343;SDS011;15597;50.914;6.638;2023-10-13T04:18:39;6.60;;;2.90;;
28343;SDS011;15597;50.914;6.638;2023-10-13T04:24:11;4.97;;;2.53;;
28343;SDS011;15597;50.914;6.638;2023-10-13T04:26:43;8.10;;;2.97;;
28343;SDS011;15597;50.914;6.638;2023-10-13T04:29:35;5.18;;;3.38;;
28343;SDS011;15597;50.914;6.638;2023-10-13T04:32:13;4.75;;;2.53;;
28343;SDS011;15597;50.914;6.638;2023-10-13T04:34:41;5.72;;;2.25;;
28343;SDS011;15597;50.914;6.638;2023-10-13T04:37:11;6.22;;;3.45;;
28343;SDS011;15597;50.914;6.638;2023-10-13T04:42:36;5.38;;;2.58;;
28343;SDS011;15597;50.914;6.638;2023-10-13T04:45:15;8.15;;;3.22;;
28343;SDS011;15597;50.914;6.638;2023-10-13T04:48:01;5.32;;;2.30;;
28343;SDS011;15597;50.914;6.638;2023-10-13T04:50:58;6.97;;;2.60;;
28343;SDS011;15597;50.914;6.638;2023-10-13T04:53:45;4.32;;;2.10;;
28343;SDS011;15597;50.914;6.638;2023-10-13T04:56:31;5.32;;;2.20;;
28343;SDS011;15597;50.914;6.638;2023-10-13T04:59:15;5.45;;;2.33;;
28343;SDS011;15597;50.914;6.638;2023-10-13T05:01:43;12.52;;;3.15;;
28343;SDS011;15597;50.914;6.638;2023-10-13T05:04:28;6.38;;;2.60;;
28343;SDS011;15597;50.914;6.638;2023-10-13T05:07:25;6.65;;;3.08;;
28343;SDS011;15597;50.914;6.638;2023-10-13T05:10:09;9.38;;;3.50;;
28343;SDS011;15597;50.914;6.638;2023-10-13T05:12:53;5.85;;;2.05;;
28343;SDS011;15597;50.914;6.638;2023-10-13T05:15:49;5.68;;;3.15;;
28343;SDS011;15597;50.914;6.638;2023-10-13T05:18:35;5.13;;;2.63;;
28343;SDS011;15597;50.914;6.638;2023-10-13T05:21:19;9.32;;;3.30;;
28343;SDS011;15597;50.914;6.638;2023-10-13T05:24:04;5.07;;;2.55;;
28343;SDS011;15597;50.914;6.638;2023-10-13T05:26:49;5.75;;;2.50;;
28343;SDS011;15597;50.914;6.638;2023-10-13T05:29:37;4.15;;;2.13;;
28343;SDS011;15597;50.914;6.638;2023-10-13T05:32:22;6.95;;;2.53;;
28343;SDS011;15597;50.914;6.638;2023-10-13T05:35:07;5.40;;;2.25;;
28343;SDS011;15597;50.914;6.638;2023-10-13T05:37:51;7.75;;;3.25;;
28343;SDS011;15597;50.914;6.638;2023-10-13T05:40:35;5.38;;;2.58;;
28343;SDS011;15597;50.914;6.638;2023-10-13T05:43:18;3.97;;;2.00;;
28343;SDS011;15597;50.914;6.638;2023-10-13T05:46:03;6.20;;;2.25;;
28343;SDS011;15597;50.914;6.638;2023-10-13T05:48:48;3.72;;;1.95;;
28343;SDS011;15597;50.914;6.638;2023-10-13T05:51:23;3.55;;;1.67;;
28343;SDS011;15597;50.914;6.638;2023-10-13T05:54:12;5.70;;;2.22;;
28343;SDS011;15597;50.914;6.638;2023-10-13T05:56:39;4.68;;;2.00;;
28343;SDS011;15597;50.914;6.638;2023-10-13T05:59:23;3.90;;;1.90;;
28343;SDS011;15597;50.914;6.638;2023-10-13T06:02:08;4.50;;;2.00;;
28343;SDS011;15597;50.914;6.638;2023-10-13T06:04:52;4.72;;;2.28;;
28343;SDS011;15597;50.914;6.638;2023-10-13T06:07:36;10.73;;;3.33;;
28343;SDS011;15597;50.914;6.638;2023-10-13T06:10:20;4.40;;;1.90;;
28343;SDS011;15597;50.914;6.638;2023-10-13T06:13:04;4.43;;;2.13;;
28343;SDS011;15597;50.914;6.638;2023-10-13T06:15:49;4.45;;;1.80;;
28343;SDS011;15597;50.914;6.638;2023-10-13T06:18:40;8.05;;;3.05;;
28343;SDS011;15597;50.914;6.638;2023-10-13T06:21:25;7.20;;;2.88;;
28343;SDS011;15597;50.914;6.638;2023-10-13T06:24:09;7.13;;;2.40;;
28343;SDS011;15597;50.914;6.638;2023-10-13T06:26:53;4.18;;;2.10;;
28343;SDS011;15597;50.914;6.638;2023-10-13T06:29:37;6.68;;;2.92;;
28343;SDS011;15597;50.914;6.638;2023-10-13T06:32:03;5.05;;;2.33;;
28343;SDS011;15597;50.914;6.638;2023-10-13T06:34:38;4.10;;;2.08;;
28343;SDS011;15597;50.914;6.638;2023-10-13T06:37:13;8.07;;;2.90;;
28343;SDS011;15597;50.914;6.638;2023-10-13T06:39:59;4.55;;;1.90;;
28343;SDS011;15597;50.914;6.638;2023-10-13T06:42:32;4.75;;;2.15;;
28343;SDS011;15597;50.914;6.638;2023-10-13T06:45:07;11.57;;;2.60;;
28343;SDS011;15597;50.914;6.638;2023-10-13T06:47:34;8.23;;;3.25;;
28343;SDS011;15597;50.914;6.638;2023-10-13T06:50:05;13.40;;;3.25;;
28343;SDS011;15597;50.914;6.638;2023-10-13T06:52:40;11.13;;;2.92;;
28343;SDS011;15597;50.914;6.638;2023-10-13T06:55:07;9.90;;;2.65;;
28343;SDS011;15597;50.914;6.638;2023-10-13T06:57:35;8.60;;;3.35;;
28343;SDS011;15597;50.914;6.638;2023-10-13T07:00:01;5.88;;;2.20;;
28343;SDS011;15597;50.914;6.638;2023-10-13T07:02:33;5.85;;;2.10;;
28343;SDS011;15597;50.914;6.638;2023-10-13T07:04:59;4.93;;;2.40;;
28343;SDS011;15597;50.914;6.638;2023-10-13T07:07:38;5.00;;;2.10;;
28343;SDS011;15597;50.914;6.638;2023-10-13T07:10:08;5.45;;;2.20;;
28343;SDS011;15597;50.914;6.638;2023-10-13T07:12:38;7.22;;;2.38;;
28343;SDS011;15597;50.914;6.638;2023-10-13T07:15:08;5.40;;;2.30;;
28343;SDS011;15597;50.914;6.638;2023-10-13T07:17:43;4.93;;;2.08;;
28343;SDS011;15597;50.914;6.638;2023-10-13T07:20:10;4.75;;;2.13;;
28343;SDS011;15597;50.914;6.638;2023-10-13T07:22:54;7.35;;;2.20;;
28343;SDS011;15597;50.914;6.638;2023-10-13T07:25:29;6.20;;;2.10;;
28343;SDS011;15597;50.914;6.638;2023-10-13T07:28:00;4.95;;;2.10;;
28343;SDS011;15597;50.914;6.638;2023-10-13T07:30:26;11.05;;;2.83;;
28343;SDS011;15597;50.914;6.638;2023-10-13T07:32:52;10.98;;;3.13;;
28343;SDS011;15597;50.914;6.638;2023-10-13T07:35:23;9.65;;;2.80;;
28343;SDS011;15597;50.914;6.638;2023-10-13T07:37:51;5.03;;;2.17;;
28343;SDS011;15597;50.914;6.638;2023-10-13T07:40:20;11.60;;;2.78;;
28343;SDS011;15597;50.914;6.638;2023-10-13T07:43:04;8.77;;;2.30;;
28343;SDS011;15597;50.914;6.638;2023-10-13T07:45:35;7.85;;;2.50;;
28343;SDS011;15597;50.914;6.638;2023-10-13T07:48:03;10.77;;;3.00;;
28343;SDS011;15597;50.914;6.638;2023-10-13T07:50:45;7.07;;;2.53;;
28343;SDS011;15597;50.914;6.638;2023-10-13T07:53:11;7.72;;;2.30;;
28343;SDS011;15597;50.914;6.638;2023-10-13T07:55:50;7.70;;;2.72;;
28343;SDS011;15597;50.914;6.638;2023-10-13T07:58:21;12.60;;;2.72;;
28343;SDS011;15597;50.914;6.638;2023-10-13T08:00:51;6.30;;;2.53;;
28343;SDS011;15597;50.914;6.638;2023-10-13T08:03:32;8.68;;;2.72;;
28343;SDS011;15597;50.914;6.638;2023-10-13T08:06:01;5.32;;;2.35;;
28343;SDS011;15597;50.914;6.638;2023-10-13T08:08:35;7.20;;;2.67;;
28343;SDS011;15597;50.914;6.638;2023-10-13T08:11:05;9.63;;;2.83;;
28343;SDS011;15597;50.914;6.638;2023-10-13T08:13:43;10.00;;;2.60;;
28343;SDS011;15597;50.914;6.638;2023-10-13T08:16:12;10.80;;;2.67;;
28343;SDS011;15597;50.914;6.638;2023-10-13T08:18:48;10.50;;;2.97;;
28343;SDS011;15597;50.914;6.638;2023-10-13T08:21:15;9.02;;;2.67;;
28343;SDS011;15597;50.914;6.638;2023-10-13T08:23:49;7.35;;;2.58;;
28343;SDS011;15597;50.914;6.638;2023-10-13T08:26:24;13.32;;;3.15;;
28343;SDS011;15597;50.914;6.638;2023-10-13T08:29:01;10.32;;;2.88;;
28343;SDS011;15597;50.914;6.638;2023-10-13T08:31:50;9.05;;;3.05;;
28343;SDS011;15597;50.914;6.638;2023-10-13T08:34:32;8.70;;;3.05;;
28343;SDS011;15597;50.914;6.638;2023-10-13T08:37:08;9.95;;;3.28;;
28343;SDS011;15597;50.914;6.638;2023-10-13T08:39:46;7.40;;;2.80;;
28343;SDS011;15597;50.914;6.638;2023-10-13T08:42:33;11.90;;;3.05;;
28343;SDS011;15597;50.914;6.638;2023-10-13T08:45:15;9.02;;;3.20;;
28343;SDS011;15597;50.914;6.638;2023-10-13T08:47:55;15.15;;;3.42;;
28343;SDS011;15597;50.914;6.638;2023-10-13T08:50:39;9.15;;;3.00;;
28343;SDS011;15597;50.914;6.638;2023-10-13T08:58:39;10.35;;;3.45;;
28343;SDS011;15597;50.914;6.638;2023-10-13T09:01:19;9.90;;;3.40;;
28343;SDS011;15597;50.914;6.638;2023-10-13T09:04:04;8.18;;;2.85;;
28343;SDS011;15597;50.914;6.638;2023-10-13T09:06:46;8.30;;;2.83;;
28343;SDS011;15597;50.914;6.638;2023-10-13T09:09:13;8.40;;;3.03;;
28343;SDS011;15597;50.914;6.638;2023-10-13T09:11:57;9.30;;;3.55;;
28343;SDS011;15597;50.914;6.638;2023-10-13T09:14:37;10.80;;;3.30;;
28343;SDS011;15597;50.914;6.638;2023-10-13T09:17:05;10.55;;;3.45;;
28343;SDS011;15597;50.914;6.638;2023-10-13T09:19:50;10.18;;;3.65;;
28343;SDS011;15597;50.914;6.638;2023-10-13T09:22:27;6.35;;;3.03;;
28343;SDS011;15597;50.914;6.638;2023-10-13T09:25:00;10.48;;;3.63;;
28343;SDS011;15597;50.914;6.638;2023-10-13T09:27:29;8.40;;;3.60;;
28343;SDS011;15597;50.914;6.638;2023-10-13T09:29:58;8.90;;;3.67;;
28343;SDS011;15597;50.914;6.638;2023-10-13T09:32:47;8.30;;;3.50;;
28343;SDS011;15597;50.914;6.638;2023-10-13T09:35:19;10.77;;;3.72;;
28343;SDS011;15597;50.914;6.638;2023-10-13T09:37:49;10.93;;;4.40;;
28343;SDS011;15597;50.914;6.638;2023-10-13T09:43:00;9.07;;;4.07;;
28343;SDS011;15597;50.914;6.638;2023-10-13T09:48:11;7.97;;;3.75;;
28343;SDS011;15597;50.914;6.638;2023-10-13T09:50:51;11.07;;;3.78;;
28343;SDS011;15597;50.914;6.638;2023-10-13T09:53:21;11.43;;;4.07;;
28343;SDS011;15597;50.914;6.638;2023-10-13T09:56:11;6.65;;;3.60;;
28343;SDS011;15597;50.914;6.638;2023-10-13T09:58:55;8.05;;;3.83;;
28343;SDS011;15597;50.914;6.638;2023-10-13T10:01:33;11.23;;;4.38;;
28343;SDS011;15597;50.914;6.638;2023-10-13T10:04:07;10.30;;;4.18;;
28343;SDS011;15597;50.914;6.638;2023-10-13T10:06:35;11.80;;;4.55;;
28343;SDS011;15597;50.914;6.638;2023-10-13T10:09:09;14.10;;;4.28;;
28343;SDS011;15597;50.914;6.638;2023-10-13T10:17:11;9.35;;;3.70;;
28343;SDS011;15597;50.914;6.638;2023-10-13T10:19:48;11.73;;;4.45;;
28343;SDS011;15597;50.914;6.638;2023-10-13T10:22:24;13.98;;;4.50;;
28343;SDS011;15597;50.914;6.638;2023-10-13T10:27:29;9.65;;;4.20;;
28343;SDS011;15597;50.914;6.638;2023-10-13T10:29:56;13.27;;;4.88;;
28343;SDS011;15597;50.914;6.638;2023-10-13T10:32:36;9.23;;;4.05;;
28343;SDS011;15597;50.914;6.638;2023-10-13T10:35:05;9.13;;;4.20;;
28343;SDS011;15597;50.914;6.638;2023-10-13T10:37:39;13.32;;;4.00;;
28343;SDS011;15597;50.914;6.638;2023-10-13T10:40:13;10.82;;;3.88;;
28343;SDS011;15597;50.914;6.638;2023-10-13T10:42:58;10.48;;;3.72;;
28343;SDS011;15597;50.914;6.638;2023-10-13T10:45:29;10.73;;;4.10;;
28343;SDS011;15597;50.914;6.638;2023-10-13T10:47:58;10.30;;;4.05;;
28343;SDS011;15597;50.914;6.638;2023-10-13T10:50:26;11.45;;;4.60;;
28343;SDS011;15597;50.914;6.638;2023-10-13T10:53:05;8.20;;;3.70;;
28343;SDS011;15597;50.914;6.638;2023-10-13T10:55:37;10.48;;;3.83;;
28343;SDS011;15597;50.914;6.638;2023-10-13T10:58:03;12.10;;;4.20;;
28343;SDS011;15597;50.914;6.638;2023-10-13T11:00:47;11.68;;;3.83;;
28343;SDS011;15597;50.914;6.638;2023-10-13T11:05:47;8.60;;;3.63;;
28343;SDS011;15597;50.914;6.638;2023-10-13T11:08:23;12.05;;;4.00;;
28343;SDS011;15597;50.914;6.638;2023-10-13T11:10:57;9.52;;;3.80;;
28343;SDS011;15597;50.914;6.638;2023-10-13T11:13:26;10.63;;;4.28;;
28343;SDS011;15597;50.914;6.638;2023-10-13T11:15:56;9.35;;;3.78;;
28343;SDS011;15597;50.914;6.638;2023-10-13T11:18:29;10.25;;;3.78;;
28343;SDS011;15597;50.914;6.638;2023-10-13T11:21:03;11.23;;;3.75;;
28343;SDS011;15597;50.914;6.638;2023-10-13T11:23:32;12.55;;;3.90;;
28343;SDS011;15597;50.914;6.638;2023-10-13T11:26:02;10.80;;;4.10;;
28343;SDS011;15597;50.914;6.638;2023-10-13T11:28:29;16.80;;;4.38;;
28343;SDS011;15597;50.914;6.638;2023-10-13T11:30:57;9.48;;;4.15;;
28343;SDS011;15597;50.914;6.638;2023-10-13T11:33:36;13.98;;;4.45;;
28343;SDS011;15597;50.914;6.638;2023-10-13T11:36:11;14.98;;;3.95;;
28343;SDS011;15597;50.914;6.638;2023-10-13T11:38:48;11.00;;;3.83;;
28343;SDS011;15597;50.914;6.638;2023-10-13T11:41:13;12.57;;;4.18;;
28343;SDS011;15597;50.914;6.638;2023-10-13T11:43:48;9.68;;;4.00;;
28343;SDS011;15597;50.914;6.638;2023-10-13T11:46:15;9.20;;;3.15;;
28343;SDS011;15597;50.914;6.638;2023-10-13T11:48:44;11.60;;;3.65;;
28343;SDS011;15597;50.914;6.638;2023-10-13T11:51:13;12.10;;;4.05;;
28343;SDS011;15597;50.914;6.638;2023-10-13T11:53:57;9.73;;;3.58;;
28343;SDS011;15597;50.914;6.638;2023-10-13T11:56:24;13.20;;;3.38;;
28343;SDS011;15597;50.914;6.638;2023-10-13T11:58:50;12.85;;;3.40;;
28343;SDS011;15597;50.914;6.638;2023-10-13T12:01:16;12.93;;;3.95;;
28343;SDS011;15597;50.914;6.638;2023-10-13T12:03:46;12.75;;;3.90;;
28343;SDS011;15597;50.914;6.638;2023-10-13T12:06:32;9.15;;;3.28;;
28343;SDS011;15597;50.914;6.638;2023-10-13T12:11:40;10.55;;;3.63;;
28343;SDS011;15597;50.914;6.638;2023-10-13T12:14:10;16.33;;;3.72;;
28343;SDS011;15597;50.914;6.638;2023-10-13T12:17:07;11.80;;;3.80;;
28343;SDS011;15597;50.914;6.638;2023-10-13T12:19:37;12.02;;;3.90;;
28343;SDS011;15597;50.914;6.638;2023-10-13T12:22:04;10.15;;;3.65;;
28343;SDS011;15597;50.914;6.638;2023-10-13T12:24:33;10.18;;;3.78;;
28343;SDS011;15597;50.914;6.638;2023-10-13T12:27:02;12.68;;;3.65;;
28343;SDS011;15597;50.914;6.638;2023-10-13T12:29:40;10.90;;;3.72;;
28343;SDS011;15597;50.914;6.638;2023-10-13T12:32:11;16.92;;;4.15;;
28343;SDS011;15597;50.914;6.638;2023-10-13T12:34:38;11.10;;;3.72;;
28343;SDS011;15597;50.914;6.638;2023-10-13T12:37:26;9.90;;;3.65;;
28343;SDS011;15597;50.914;6.638;2023-10-13T12:40:02;10.20;;;3.35;;
28343;SDS011;15597;50.914;6.638;2023-10-13T12:42:47;10.93;;;3.65;;
28343;SDS011;15597;50.914;6.638;2023-10-13T12:45:31;15.82;;;4.13;;
28343;SDS011;15597;50.914;6.638;2023-10-13T12:48:15;10.23;;;3.40;;
28343;SDS011;15597;50.914;6.638;2023-10-13T12:51:02;11.65;;;3.92;;
28343;SDS011;15597;50.914;6.638;2023-10-13T12:54:05;12.43;;;4.20;;
28343;SDS011;15597;50.914;6.638;2023-10-13T12:56:39;15.35;;;4.05;;
28343;SDS011;15597;50.914;6.638;2023-10-13T12:59:09;13.38;;;3.50;;
28343;SDS011;15597;50.914;6.638;2023-10-13T13:01:39;16.77;;;3.60;;
28343;SDS011;15597;50.914;6.638;2023-10-13T13:04:08;15.30;;;3.70;;
28343;SDS011;15597;50.914;6.638;2023-10-13T13:06:57;11.00;;;3.33;;
28343;SDS011;15597;50.914;6.638;2023-10-13T13:09:23;12.43;;;3.88;;
28343;SDS011;15597;50.914;6.638;2023-10-13T13:11:52;10.63;;;3.65;;
28343;SDS011;15597;50.914;6.638;2023-10-13T13:14:22;7.90;;;2.90;;
28343;SDS011;15597;50.914;6.638;2023-10-13T13:16:57;10.48;;;3.60;;
28343;SDS011;15597;50.914;6.638;2023-10-13T13:19:31;10.73;;;3.78;;
28343;SDS011;15597;50.914;6.638;2023-10-13T13:22:00;17.00;;;3.67;;
28343;SDS011;15597;50.914;6.638;2023-10-13T13:24:25;13.32;;;3.78;;
28343;SDS011;15597;50.914;6.638;2023-10-13T13:26:55;12.60;;;3.85;;
28343;SDS011;15597;50.914;6.638;2023-10-13T13:29:21;9.52;;;3.75;;
28343;SDS011;15597;50.914;6.638;2023-10-13T13:31:47;11.40;;;3.60;;
28343;SDS011;15597;50.914;6.638;2023-10-13T13:34:12;8.43;;;3.40;;
28343;SDS011;15597;50.914;6.638;2023-10-13T13:36:38;14.93;;;3.40;;
28343;SDS011;15597;50.914;6.638;2023-10-13T13:39:09;12.23;;;3.58;;
28343;SDS011;15597;50.914;6.638;2023-10-13T13:41:35;12.65;;;3.85;;
28343;SDS011;15597;50.914;6.638;2023-10-13T13:44:01;8.52;;;3.05;;
28343;SDS011;15597;50.914;6.638;2023-10-13T13:46:38;10.55;;;3.22;;
28343;SDS011;15597;50.914;6.638;2023-10-13T13:49:08;10.07;;;3.10;;
28343;SDS011;15597;50.914;6.638;2023-10-13T13:51:43;13.27;;;3.75;;
28343;SDS011;15597;50.914;6.638;2023-10-13T13:54:17;10.65;;;3.55;;
28343;SDS011;15597;50.914;6.638;2023-10-13T13:56:43;13.20;;;3.70;;
28343;SDS011;15597;50.914;6.638;2023-10-13T13:59:09;11.27;;;3.35;;
28343;SDS011;15597;50.914;6.638;2023-10-13T14:01:35;14.50;;;3.70;;
28343;SDS011;15597;50.914;6.638;2023-10-13T14:04:02;13.38;;;4.00;;
28343;SDS011;15597;50.914;6.638;2023-10-13T14:06:31;14.00;;;4.13;;
28343;SDS011;15597;50.914;6.638;2023-10-13T14:08:59;16.67;;;3.70;;
28343;SDS011;15597;50.914;6.638;2023-10-13T14:11:29;11.30;;;3.85;;
28343;SDS011;15597;50.914;6.638;2023-10-13T14:14:14;17.58;;;3.83;;
28343;SDS011;15597;50.914;6.638;2023-10-13T14:17:01;15.27;;;3.80;;
28343;SDS011;15597;50.914;6.638;2023-10-13T14:19:33;11.57;;;3.60;;
28343;SDS011;15597;50.914;6.638;2023-10-13T14:21:59;14.43;;;3.85;;
28343;SDS011;15597;50.914;6.638;2023-10-13T14:24:31;10.75;;;3.72;;
28343;SDS011;15597;50.914;6.638;2023-10-13T14:27:09;9.43;;;3.72;;
28343;SDS011;15597;50.914;6.638;2023-10-13T14:29:43;14.18;;;3.85;;
28343;SDS011;15597;50.914;6.638;2023-10-13T14:32:12;9.73;;;2.85;;
28343;SDS011;15597;50.914;6.638;2023-10-13T14:34:40;15.85;;;4.05;;
28343;SDS011;15597;50.914;6.638;2023-10-13T14:37:07;11.63;;;4.22;;
28343;SDS011;15597;50.914;6.638;2023-10-13T14:39:37;11.02;;;3.80;;
28343;SDS011;15597;50.914;6.638;2023-10-13T14:42:04;10.85;;;3.17;;
28343;SDS011;15597;50.914;6.638;2023-10-13T14:44:35;10.38;;;3.67;;
28343;SDS011;15597;50.914;6.638;2023-10-13T14:47:03;9.45;;;3.40;;
28343;SDS011;15597;50.914;6.638;2023-10-13T14:49:34;13.30;;;3.83;;
28343;SDS011;15597;50.914;6.638;2023-10-13T14:52:01;14.65;;;4.10;;
28343;SDS011;15597;50.914;6.638;2023-10-13T14:54:27;10.60;;;3.38;;
28343;SDS011;15597;50.914;6.638;2023-10-13T14:56:59;12.02;;;3.80;;
28343;SDS011;15597;50.914;6.638;2023-10-13T14:59:28;14.30;;;3.55;;
28343;SDS011;15597;50.914;6.638;2023-10-13T15:02:03;13.02;;;3.70;;
28343;SDS011;15597;50.914;6.638;2023-10-13T15:04:29;10.95;;;3.50;;
28343;SDS011;15597;50.914;6.638;2023-10-13T15:06:58;8.43;;;3.42;;
28343;SDS011;15597;50.914;6.638;2023-10-13T15:09:27;9.35;;;4.00;;
28343;SDS011;15597;50.914;6.638;2023-10-13T15:11:54;12.75;;;3.70;;
28343;SDS011;15597;50.914;6.638;2023-10-13T15:14:20;10.52;;;3.80;;
28343;SDS011;15597;50.914;6.638;2023-10-13T15:16:46;11.15;;;3.17;;
28343;SDS011;15597;50.914;6.638;2023-10-13T15:19:11;8.05;;;3.17;;
28343;SDS011;15597;50.914;6.638;2023-10-13T15:21:37;9.05;;;3.50;;
28343;SDS011;15597;50.914;6.638;2023-10-13T15:24:06;9.30;;;3.45;;
28343;SDS011;15597;50.914;6.638;2023-10-13T15:26:47;9.30;;;3.72;;
28343;SDS011;15597;50.914;6.638;2023-10-13T15:29:14;10.32;;;3.40;;
28343;SDS011;15597;50.914;6.638;2023-10-13T15:31:44;13.00;;;3.67;;
28343;SDS011;15597;50.914;6.638;2023-10-13T15:34:27;9.27;;;3.58;;
28343;SDS011;15597;50.914;6.638;2023-10-13T15:36:53;8.48;;;3.63;;
28343;SDS011;15597;50.914;6.638;2023-10-13T15:39:21;8.88;;;3.67;;
28343;SDS011;15597;50.914;6.638;2023-10-13T15:41:54;9.88;;;3.63;;
28343;SDS011;15597;50.914;6.638;2023-10-13T15:44:24;9.98;;;3.63;;
28343;SDS011;15597;50.914;6.638;2023-10-13T15:46:54;15.70;;;4.13;;
28343;SDS011;15597;50.914;6.638;2023-10-13T15:49:21;14.43;;;3.78;;
28343;SDS011;15597;50.914;6.638;2023-10-13T15:51:47;13.65;;;3.80;;
28343;SDS011;15597;50.914;6.638;2023-10-13T15:54:13;12.32;;;3.70;;